MiSS Sarah — WDE9595 — position and weather

sailwx.info

Track history (hours):
 
Tides and Currents Weather Stations Pressure Air Temp Water Temp Dewpoint Dewpoint Depression Visibility Wind Speed Wind Dir Waves Ship Positions

MiSS Sarah

Owner: Higman Barge Lines, Inc, Orange, TX. More information available from US FCC via Universal Licensing System and Coast Guard Vessel Documentation Center.

Last reported at 2015-May-23 11:32 UTC. Time now 2015-May-28 02:07 UTC.
Position N 29°22' W 094°47'.

Length 24 m; draft 8 m.

Type: Towing. MMSI: 367419040.

Date/timePositionNaut miles runAvg speedWind from/ knotsBaromVisibWave heightAir tempDewpointWater temp
2015-May-23 11:32N 29°22' W 094°47'1 0.0
2015-May-21 16:16N 29°22' W 094°48'  
2015-May-14 22:06N 29°23' W 094°49'6 6.8
2015-May-14 21:10N 29°29' W 094°52'4 6.4
2015-May-14 20:33N 29°32' W 094°54'6 6.4
2015-May-14 19:33N 29°38' W 094°58'6 6.2
2015-May-14 18:33N 29°43' W 095°01'4 4.4
2015-May-14 17:32N 29°45' W 095°06'5 0.2
2015-May-13 17:05N 29°45' W 095°12'2 4.3
2015-May-13 16:32N 29°44' W 095°09'4 3.6
2015-May-13 15:32N 29°46' W 095°05'1 0.9
2015-May-13 14:33N 29°47' W 095°05'0 0.0
2015-May-13 13:33N 29°47' W 095°05'0 0.0
2015-May-13 12:33N 29°47' W 095°05'0 0.0
2015-May-13 11:33N 29°47' W 095°05'  
Track history (hours):
 
Tides and Currents Weather Stations Pressure Air Temp Water Temp Dewpoint Dewpoint Depression Visibility Wind Speed Wind Dir Waves Ship Positions

MiSS Sarah

Owner: Higman Barge Lines, Inc, Orange, TX. More information available from US FCC via Universal Licensing System and Coast Guard Vessel Documentation Center.

Last reported at 2015-May-23 11:32 UTC. Time now 2015-May-28 02:07 UTC.
Position N 29°22' W 094°47'.

Length 24 m; draft 8 m.

Type: Towing. MMSI: 367419040.

Date/timePositionNaut miles runAvg speedWind from/ knotsBaromVisibWave heightAir tempDewpointWater temp
2015-May-23 11:32N 29°22' W 094°47'1 0.0
2015-May-21 16:16N 29°22' W 094°48'  
2015-May-14 22:06N 29°23' W 094°49'6 6.8
2015-May-14 21:10N 29°29' W 094°52'4 6.4
2015-May-14 20:33N 29°32' W 094°54'6 6.4
2015-May-14 19:33N 29°38' W 094°58'6 6.2
2015-May-14 18:33N 29°43' W 095°01'4 4.4
2015-May-14 17:32N 29°45' W 095°06'5 0.2
2015-May-13 17:05N 29°45' W 095°12'2 4.3
2015-May-13 16:32N 29°44' W 095°09'4 3.6
2015-May-13 15:32N 29°46' W 095°05'1 0.9
2015-May-13 14:33N 29°47' W 095°05'0 0.0
2015-May-13 13:33N 29°47' W 095°05'0 0.0
2015-May-13 12:33N 29°47' W 095°05'0 0.0
2015-May-13 11:33N 29°47' W 095°05'  

Dump ship's entire track history